sensor_id;sensor_type;location;lat;lon;timestamp;P1;durP1;ratioP1;P2;durP2;ratioP2
77788;SDS011;70537;44.384;0.512;2023-07-02T00:02:08;19.17;;;9.70;;
77788;SDS011;70537;44.384;0.512;2023-07-02T00:04:33;28.42;;;10.77;;
77788;SDS011;70537;44.384;0.512;2023-07-02T00:06:59;18.63;;;9.55;;
77788;SDS011;70537;44.384;0.512;2023-07-02T00:09:24;18.85;;;8.98;;
77788;SDS011;70537;44.384;0.512;2023-07-02T00:11:50;21.40;;;10.48;;
77788;SDS011;70537;44.384;0.512;2023-07-02T00:14:15;19.20;;;8.63;;
77788;SDS011;70537;44.384;0.512;2023-07-02T00:16:43;19.92;;;9.77;;
77788;SDS011;70537;44.384;0.512;2023-07-02T00:19:15;17.23;;;9.95;;
77788;SDS011;70537;44.384;0.512;2023-07-02T00:21:41;21.48;;;10.23;;
77788;SDS011;70537;44.384;0.512;2023-07-02T00:24:07;19.75;;;9.70;;
77788;SDS011;70537;44.384;0.512;2023-07-02T00:26:39;22.25;;;9.07;;
77788;SDS011;70537;44.384;0.512;2023-07-02T00:29:06;15.65;;;8.45;;
77788;SDS011;70537;44.384;0.512;2023-07-02T00:31:33;20.48;;;9.95;;
77788;SDS011;70537;44.384;0.512;2023-07-02T00:33:59;16.13;;;8.88;;
77788;SDS011;70537;44.384;0.512;2023-07-02T00:36:26;17.58;;;9.77;;
77788;SDS011;70537;44.384;0.512;2023-07-02T00:38:52;19.55;;;9.98;;
77788;SDS011;70537;44.384;0.512;2023-07-02T00:41:17;17.10;;;9.73;;
77788;SDS011;70537;44.384;0.512;2023-07-02T00:43:43;18.70;;;9.50;;
77788;SDS011;70537;44.384;0.512;2023-07-02T00:46:18;13.82;;;8.75;;
77788;SDS011;70537;44.384;0.512;2023-07-02T00:48:48;23.23;;;9.13;;
77788;SDS011;70537;44.384;0.512;2023-07-02T00:51:15;16.92;;;9.07;;
77788;SDS011;70537;44.384;0.512;2023-07-02T00:53:45;18.85;;;9.32;;
77788;SDS011;70537;44.384;0.512;2023-07-02T00:56:11;19.50;;;8.75;;
77788;SDS011;70537;44.384;0.512;2023-07-02T00:58:44;19.45;;;9.60;;
77788;SDS011;70537;44.384;0.512;2023-07-02T01:01:16;22.80;;;8.75;;
77788;SDS011;70537;44.384;0.512;2023-07-02T01:03:58;21.23;;;8.85;;
77788;SDS011;70537;44.384;0.512;2023-07-02T01:06:35;17.75;;;8.52;;
77788;SDS011;70537;44.384;0.512;2023-07-02T01:09:05;15.30;;;8.55;;
77788;SDS011;70537;44.384;0.512;2023-07-02T01:14:00;20.70;;;8.15;;
77788;SDS011;70537;44.384;0.512;2023-07-02T01:16:29;15.85;;;8.18;;
77788;SDS011;70537;44.384;0.512;2023-07-02T01:18:58;20.95;;;8.32;;
77788;SDS011;70537;44.384;0.512;2023-07-02T01:21:29;14.85;;;7.72;;
77788;SDS011;70537;44.384;0.512;2023-07-02T01:23:55;17.08;;;7.57;;
77788;SDS011;70537;44.384;0.512;2023-07-02T01:26:21;15.70;;;8.23;;
77788;SDS011;70537;44.384;0.512;2023-07-02T01:28:46;14.00;;;7.57;;
77788;SDS011;70537;44.384;0.512;2023-07-02T01:31:12;18.25;;;9.02;;
77788;SDS011;70537;44.384;0.512;2023-07-02T01:33:37;18.30;;;7.57;;
77788;SDS011;70537;44.384;0.512;2023-07-02T01:36:03;15.38;;;7.30;;
77788;SDS011;70537;44.384;0.512;2023-07-02T01:38:29;16.75;;;6.50;;
77788;SDS011;70537;44.384;0.512;2023-07-02T01:40:54;19.65;;;7.60;;
77788;SDS011;70537;44.384;0.512;2023-07-02T01:43:20;15.65;;;7.38;;
77788;SDS011;70537;44.384;0.512;2023-07-02T01:45:45;15.35;;;7.40;;
77788;SDS011;70537;44.384;0.512;2023-07-02T01:48:11;10.80;;;6.55;;
77788;SDS011;70537;44.384;0.512;2023-07-02T01:50:36;11.65;;;6.78;;
77788;SDS011;70537;44.384;0.512;2023-07-02T01:53:02;14.07;;;7.53;;
77788;SDS011;70537;44.384;0.512;2023-07-02T01:55:27;13.05;;;6.32;;
77788;SDS011;70537;44.384;0.512;2023-07-02T01:57:52;13.65;;;6.15;;
77788;SDS011;70537;44.384;0.512;2023-07-02T02:00:18;16.25;;;7.05;;
77788;SDS011;70537;44.384;0.512;2023-07-02T02:02:44;15.60;;;7.43;;
77788;SDS011;70537;44.384;0.512;2023-07-02T02:05:09;18.67;;;8.55;;
77788;SDS011;70537;44.384;0.512;2023-07-02T02:07:37;16.02;;;7.68;;
77788;SDS011;70537;44.384;0.512;2023-07-02T02:10:03;13.85;;;6.88;;
77788;SDS011;70537;44.384;0.512;2023-07-02T02:12:29;12.13;;;6.53;;
77788;SDS011;70537;44.384;0.512;2023-07-02T02:14:55;13.10;;;6.63;;
77788;SDS011;70537;44.384;0.512;2023-07-02T02:17:21;15.27;;;7.25;;
77788;SDS011;70537;44.384;0.512;2023-07-02T02:19:48;19.40;;;6.97;;
77788;SDS011;70537;44.384;0.512;2023-07-02T02:22:14;19.27;;;6.00;;
77788;SDS011;70537;44.384;0.512;2023-07-02T02:24:40;11.70;;;6.05;;
77788;SDS011;70537;44.384;0.512;2023-07-02T02:27:05;14.20;;;6.57;;
77788;SDS011;70537;44.384;0.512;2023-07-02T02:29:31;17.88;;;6.18;;
77788;SDS011;70537;44.384;0.512;2023-07-02T02:31:56;10.48;;;6.43;;
77788;SDS011;70537;44.384;0.512;2023-07-02T02:34:22;10.45;;;5.60;;
77788;SDS011;70537;44.384;0.512;2023-07-02T02:36:47;13.10;;;6.60;;
77788;SDS011;70537;44.384;0.512;2023-07-02T02:39:13;8.10;;;5.75;;
77788;SDS011;70537;44.384;0.512;2023-07-02T02:41:39;11.85;;;5.95;;
77788;SDS011;70537;44.384;0.512;2023-07-02T02:44:04;11.35;;;5.50;;
77788;SDS011;70537;44.384;0.512;2023-07-02T02:46:30;11.05;;;5.65;;
77788;SDS011;70537;44.384;0.512;2023-07-02T02:48:56;8.95;;;5.65;;
77788;SDS011;70537;44.384;0.512;2023-07-02T02:51:21;8.68;;;5.55;;
77788;SDS011;70537;44.384;0.512;2023-07-02T02:53:47;10.90;;;5.63;;
77788;SDS011;70537;44.384;0.512;2023-07-02T02:56:12;15.85;;;6.07;;
77788;SDS011;70537;44.384;0.512;2023-07-02T02:58:39;8.48;;;5.30;;
77788;SDS011;70537;44.384;0.512;2023-07-02T03:01:05;11.48;;;4.95;;
77788;SDS011;70537;44.384;0.512;2023-07-02T03:03:35;8.57;;;4.93;;
77788;SDS011;70537;44.384;0.512;2023-07-02T03:06:04;9.93;;;5.65;;
77788;SDS011;70537;44.384;0.512;2023-07-02T03:08:30;11.63;;;5.10;;
77788;SDS011;70537;44.384;0.512;2023-07-02T03:10:56;9.88;;;4.82;;
77788;SDS011;70537;44.384;0.512;2023-07-02T03:13:21;11.10;;;4.90;;
77788;SDS011;70537;44.384;0.512;2023-07-02T03:15:47;8.98;;;4.82;;
77788;SDS011;70537;44.384;0.512;2023-07-02T03:18:12;8.93;;;4.95;;
77788;SDS011;70537;44.384;0.512;2023-07-02T03:20:38;8.43;;;5.15;;
77788;SDS011;70537;44.384;0.512;2023-07-02T03:23:03;8.13;;;5.30;;
77788;SDS011;70537;44.384;0.512;2023-07-02T03:25:29;6.32;;;4.60;;
77788;SDS011;70537;44.384;0.512;2023-07-02T03:27:54;12.02;;;5.68;;
77788;SDS011;70537;44.384;0.512;2023-07-02T03:30:20;11.77;;;5.03;;
77788;SDS011;70537;44.384;0.512;2023-07-02T03:32:45;8.32;;;4.57;;
77788;SDS011;70537;44.384;0.512;2023-07-02T03:35:11;10.88;;;4.97;;
77788;SDS011;70537;44.384;0.512;2023-07-02T03:37:36;11.77;;;5.60;;
77788;SDS011;70537;44.384;0.512;2023-07-02T03:40:02;11.73;;;5.85;;
77788;SDS011;70537;44.384;0.512;2023-07-02T03:42:27;10.98;;;4.97;;
77788;SDS011;70537;44.384;0.512;2023-07-02T03:44:53;8.88;;;4.55;;
77788;SDS011;70537;44.384;0.512;2023-07-02T03:47:18;7.75;;;5.00;;
77788;SDS011;70537;44.384;0.512;2023-07-02T03:49:44;7.63;;;4.25;;
77788;SDS011;70537;44.384;0.512;2023-07-02T03:52:10;6.32;;;4.00;;
77788;SDS011;70537;44.384;0.512;2023-07-02T03:54:35;9.80;;;5.03;;
77788;SDS011;70537;44.384;0.512;2023-07-02T03:57:01;8.43;;;5.03;;
77788;SDS011;70537;44.384;0.512;2023-07-02T03:59:27;8.77;;;5.00;;
77788;SDS011;70537;44.384;0.512;2023-07-02T04:01:52;6.28;;;3.90;;
77788;SDS011;70537;44.384;0.512;2023-07-02T04:04:18;9.32;;;4.15;;
77788;SDS011;70537;44.384;0.512;2023-07-02T04:06:43;7.53;;;4.47;;
77788;SDS011;70537;44.384;0.512;2023-07-02T04:09:09;8.20;;;4.25;;
77788;SDS011;70537;44.384;0.512;2023-07-02T04:11:34;9.95;;;4.07;;
77788;SDS011;70537;44.384;0.512;2023-07-02T04:13:59;5.10;;;3.17;;
77788;SDS011;70537;44.384;0.512;2023-07-02T04:16:25;8.13;;;2.88;;
77788;SDS011;70537;44.384;0.512;2023-07-02T04:18:50;5.38;;;2.90;;
77788;SDS011;70537;44.384;0.512;2023-07-02T04:21:16;5.70;;;2.90;;
77788;SDS011;70537;44.384;0.512;2023-07-02T04:23:41;2.67;;;2.13;;
77788;SDS011;70537;44.384;0.512;2023-07-02T04:26:07;3.90;;;2.55;;
77788;SDS011;70537;44.384;0.512;2023-07-02T04:28:32;2.53;;;2.30;;
77788;SDS011;70537;44.384;0.512;2023-07-02T04:30:58;2.72;;;2.00;;
77788;SDS011;70537;44.384;0.512;2023-07-02T04:33:23;3.50;;;2.28;;
77788;SDS011;70537;44.384;0.512;2023-07-02T04:35:49;2.65;;;1.95;;
77788;SDS011;70537;44.384;0.512;2023-07-02T04:38:16;2.17;;;1.42;;
77788;SDS011;70537;44.384;0.512;2023-07-02T04:40:41;3.10;;;1.98;;
77788;SDS011;70537;44.384;0.512;2023-07-02T04:43:09;2.22;;;1.35;;
77788;SDS011;70537;44.384;0.512;2023-07-02T04:45:35;2.15;;;1.35;;
77788;SDS011;70537;44.384;0.512;2023-07-02T04:48:02;2.95;;;1.77;;
77788;SDS011;70537;44.384;0.512;2023-07-02T04:50:28;1.45;;;1.17;;
77788;SDS011;70537;44.384;0.512;2023-07-02T04:52:54;2.00;;;1.30;;
77788;SDS011;70537;44.384;0.512;2023-07-02T04:55:20;1.60;;;1.30;;
77788;SDS011;70537;44.384;0.512;2023-07-02T04:57:46;2.97;;;1.55;;
77788;SDS011;70537;44.384;0.512;2023-07-02T05:00:11;2.30;;;1.30;;
77788;SDS011;70537;44.384;0.512;2023-07-02T05:02:38;2.05;;;1.63;;
77788;SDS011;70537;44.384;0.512;2023-07-02T05:05:04;3.78;;;1.20;;
77788;SDS011;70537;44.384;0.512;2023-07-02T05:07:29;1.38;;;1.27;;
77788;SDS011;70537;44.384;0.512;2023-07-02T05:09:55;1.98;;;1.45;;
77788;SDS011;70537;44.384;0.512;2023-07-02T05:12:20;0.70;;;0.70;;
77788;SDS011;70537;44.384;0.512;2023-07-02T05:14:46;2.50;;;1.00;;
77788;SDS011;70537;44.384;0.512;2023-07-02T05:17:12;3.42;;;1.02;;
77788;SDS011;70537;44.384;0.512;2023-07-02T05:19:39;3.42;;;0.90;;
77788;SDS011;70537;44.384;0.512;2023-07-02T05:22:06;1.48;;;1.10;;
77788;SDS011;70537;44.384;0.512;2023-07-02T05:24:31;1.48;;;0.55;;
77788;SDS011;70537;44.384;0.512;2023-07-02T05:26:57;1.63;;;0.70;;
77788;SDS011;70537;44.384;0.512;2023-07-02T05:29:22;4.15;;;1.00;;
77788;SDS011;70537;44.384;0.512;2023-07-02T05:31:48;1.48;;;1.27;;
77788;SDS011;70537;44.384;0.512;2023-07-02T05:34:13;3.35;;;1.30;;
77788;SDS011;70537;44.384;0.512;2023-07-02T05:36:39;1.60;;;0.85;;
77788;SDS011;70537;44.384;0.512;2023-07-02T05:39:04;3.90;;;1.10;;
77788;SDS011;70537;44.384;0.512;2023-07-02T05:41:29;1.38;;;1.25;;
77788;SDS011;70537;44.384;0.512;2023-07-02T05:43:58;1.45;;;1.10;;
77788;SDS011;70537;44.384;0.512;2023-07-02T05:46:24;2.13;;;1.00;;
77788;SDS011;70537;44.384;0.512;2023-07-02T05:48:49;2.25;;;0.93;;
77788;SDS011;70537;44.384;0.512;2023-07-02T05:51:21;2.03;;;1.00;;
77788;SDS011;70537;44.384;0.512;2023-07-02T05:53:47;1.85;;;0.55;;
77788;SDS011;70537;44.384;0.512;2023-07-02T05:56:13;3.50;;;1.20;;
77788;SDS011;70537;44.384;0.512;2023-07-02T05:58:39;1.23;;;0.82;;
77788;SDS011;70537;44.384;0.512;2023-07-02T06:01:04;4.57;;;1.38;;
77788;SDS011;70537;44.384;0.512;2023-07-02T06:03:31;1.10;;;1.00;;
77788;SDS011;70537;44.384;0.512;2023-07-02T06:05:56;1.33;;;1.10;;
77788;SDS011;70537;44.384;0.512;2023-07-02T06:08:22;2.30;;;0.80;;
77788;SDS011;70537;44.384;0.512;2023-07-02T06:10:47;1.38;;;1.25;;
77788;SDS011;70537;44.384;0.512;2023-07-02T06:13:13;1.63;;;0.77;;
77788;SDS011;70537;44.384;0.512;2023-07-02T06:15:39;1.52;;;1.40;;
77788;SDS011;70537;44.384;0.512;2023-07-02T06:18:05;2.35;;;1.00;;
77788;SDS011;70537;44.384;0.512;2023-07-02T06:20:30;2.72;;;1.40;;
77788;SDS011;70537;44.384;0.512;2023-07-02T06:22:56;3.63;;;1.02;;
77788;SDS011;70537;44.384;0.512;2023-07-02T06:25:21;2.13;;;1.13;;
77788;SDS011;70537;44.384;0.512;2023-07-02T06:27:47;4.50;;;1.08;;
77788;SDS011;70537;44.384;0.512;2023-07-02T06:30:13;1.08;;;0.63;;
77788;SDS011;70537;44.384;0.512;2023-07-02T06:32:38;6.13;;;1.23;;
77788;SDS011;70537;44.384;0.512;2023-07-02T06:35:04;3.22;;;1.30;;
77788;SDS011;70537;44.384;0.512;2023-07-02T06:37:33;2.47;;;1.33;;
77788;SDS011;70537;44.384;0.512;2023-07-02T06:39:59;5.05;;;1.33;;
77788;SDS011;70537;44.384;0.512;2023-07-02T06:42:25;1.40;;;1.10;;
77788;SDS011;70537;44.384;0.512;2023-07-02T06:44:50;3.08;;;1.52;;
77788;SDS011;70537;44.384;0.512;2023-07-02T06:47:16;2.00;;;1.25;;
77788;SDS011;70537;44.384;0.512;2023-07-02T06:49:42;1.85;;;1.58;;
77788;SDS011;70537;44.384;0.512;2023-07-02T06:52:07;1.38;;;0.98;;
77788;SDS011;70537;44.384;0.512;2023-07-02T06:54:33;1.98;;;1.63;;
77788;SDS011;70537;44.384;0.512;2023-07-02T06:56:59;2.45;;;1.27;;
77788;SDS011;70537;44.384;0.512;2023-07-02T06:59:25;2.10;;;1.65;;
77788;SDS011;70537;44.384;0.512;2023-07-02T07:01:52;1.83;;;1.58;;
77788;SDS011;70537;44.384;0.512;2023-07-02T07:04:17;1.35;;;1.13;;
77788;SDS011;70537;44.384;0.512;2023-07-02T07:06:43;1.63;;;1.20;;
77788;SDS011;70537;44.384;0.512;2023-07-02T07:09:09;1.65;;;1.55;;
77788;SDS011;70537;44.384;0.512;2023-07-02T07:11:34;1.77;;;1.52;;
77788;SDS011;70537;44.384;0.512;2023-07-02T07:14:00;1.25;;;1.10;;
77788;SDS011;70537;44.384;0.512;2023-07-02T07:16:26;1.55;;;1.02;;
77788;SDS011;70537;44.384;0.512;2023-07-02T07:18:52;1.70;;;1.48;;
77788;SDS011;70537;44.384;0.512;2023-07-02T07:21:17;3.38;;;1.08;;
77788;SDS011;70537;44.384;0.512;2023-07-02T07:23:43;1.63;;;1.42;;
77788;SDS011;70537;44.384;0.512;2023-07-02T07:26:10;1.17;;;1.08;;
77788;SDS011;70537;44.384;0.512;2023-07-02T07:28:35;3.08;;;1.40;;
77788;SDS011;70537;44.384;0.512;2023-07-02T07:31:01;1.20;;;1.00;;
77788;SDS011;70537;44.384;0.512;2023-07-02T07:33:27;1.52;;;1.40;;
77788;SDS011;70537;44.384;0.512;2023-07-02T07:35:53;2.25;;;0.90;;
77788;SDS011;70537;44.384;0.512;2023-07-02T07:38:18;1.92;;;1.20;;
77788;SDS011;70537;44.384;0.512;2023-07-02T07:40:44;2.42;;;1.08;;
77788;SDS011;70537;44.384;0.512;2023-07-02T07:43:09;3.67;;;1.13;;
77788;SDS011;70537;44.384;0.512;2023-07-02T07:45:35;1.98;;;0.90;;
77788;SDS011;70537;44.384;0.512;2023-07-02T07:48:01;3.65;;;1.33;;
77788;SDS011;70537;44.384;0.512;2023-07-02T07:50:27;3.25;;;1.10;;
77788;SDS011;70537;44.384;0.512;2023-07-02T07:52:53;3.38;;;1.20;;
77788;SDS011;70537;44.384;0.512;2023-07-02T07:55:18;8.68;;;6.38;;
77788;SDS011;70537;44.384;0.512;2023-07-02T07:57:44;6.10;;;3.40;;
77788;SDS011;70537;44.384;0.512;2023-07-02T08:00:09;12.57;;;4.65;;
77788;SDS011;70537;44.384;0.512;2023-07-02T08:02:36;2.92;;;1.58;;
77788;SDS011;70537;44.384;0.512;2023-07-02T08:05:02;2.75;;;1.00;;
77788;SDS011;70537;44.384;0.512;2023-07-02T08:07:28;2.67;;;1.65;;
77788;SDS011;70537;44.384;0.512;2023-07-02T08:09:56;1.92;;;1.08;;
77788;SDS011;70537;44.384;0.512;2023-07-02T08:12:21;1.38;;;1.23;;
77788;SDS011;70537;44.384;0.512;2023-07-02T08:14:47;4.45;;;1.38;;
77788;SDS011;70537;44.384;0.512;2023-07-02T08:17:14;2.35;;;1.08;;
77788;SDS011;70537;44.384;0.512;2023-07-02T08:19:39;1.40;;;1.00;;
77788;SDS011;70537;44.384;0.512;2023-07-02T08:22:05;3.28;;;0.88;;
77788;SDS011;70537;44.384;0.512;2023-07-02T08:24:30;2.42;;;2.05;;
77788;SDS011;70537;44.384;0.512;2023-07-02T08:26:56;1.58;;;1.08;;
77788;SDS011;70537;44.384;0.512;2023-07-02T08:29:23;3.33;;;1.40;;
77788;SDS011;70537;44.384;0.512;2023-07-02T08:31:48;2.63;;;1.33;;
77788;SDS011;70537;44.384;0.512;2023-07-02T08:34:14;1.15;;;0.95;;
77788;SDS011;70537;44.384;0.512;2023-07-02T08:36:39;2.50;;;1.20;;
77788;SDS011;70537;44.384;0.512;2023-07-02T08:39:05;1.42;;;0.95;;
77788;SDS011;70537;44.384;0.512;2023-07-02T08:41:30;1.10;;;0.85;;
77788;SDS011;70537;44.384;0.512;2023-07-02T08:44:08;1.35;;;0.82;;
77788;SDS011;70537;44.384;0.512;2023-07-02T08:46:34;21.35;;;2.38;;
77788;SDS011;70537;44.384;0.512;2023-07-02T08:49:00;2.50;;;1.35;;
77788;SDS011;70537;44.384;0.512;2023-07-02T08:51:26;1.90;;;1.00;;
77788;SDS011;70537;44.384;0.512;2023-07-02T08:53:51;3.50;;;1.25;;
77788;SDS011;70537;44.384;0.512;2023-07-02T08:56:17;1.20;;;0.93;;
77788;SDS011;70537;44.384;0.512;2023-07-02T08:58:42;3.75;;;1.50;;
77788;SDS011;70537;44.384;0.512;2023-07-02T09:01:13;1.55;;;1.23;;
77788;SDS011;70537;44.384;0.512;2023-07-02T09:03:40;2.00;;;1.17;;
77788;SDS011;70537;44.384;0.512;2023-07-02T09:06:09;1.48;;;1.38;;
77788;SDS011;70537;44.384;0.512;2023-07-02T09:08:36;3.67;;;1.30;;
77788;SDS011;70537;44.384;0.512;2023-07-02T09:11:08;2.25;;;1.42;;
77788;SDS011;70537;44.384;0.512;2023-07-02T09:13:48;1.50;;;1.00;;
77788;SDS011;70537;44.384;0.512;2023-07-02T09:19:06;2.83;;;1.67;;
77788;SDS011;70537;44.384;0.512;2023-07-02T09:21:48;4.22;;;1.90;;
77788;SDS011;70537;44.384;0.512;2023-07-02T09:26:47;3.83;;;1.63;;
77788;SDS011;70537;44.384;0.512;2023-07-02T09:29:18;2.75;;;1.40;;
77788;SDS011;70537;44.384;0.512;2023-07-02T09:31:56;2.95;;;1.13;;
77788;SDS011;70537;44.384;0.512;2023-07-02T09:34:33;1.60;;;1.17;;
77788;SDS011;70537;44.384;0.512;2023-07-02T09:36:59;1.80;;;1.20;;
77788;SDS011;70537;44.384;0.512;2023-07-02T09:39:27;3.35;;;1.00;;
77788;SDS011;70537;44.384;0.512;2023-07-02T09:41:54;2.45;;;1.15;;
77788;SDS011;70537;44.384;0.512;2023-07-02T09:44:22;3.00;;;1.55;;
77788;SDS011;70537;44.384;0.512;2023-07-02T09:47:14;1.23;;;1.13;;
77788;SDS011;70537;44.384;0.512;2023-07-02T09:49:49;1.40;;;1.08;;
77788;SDS011;70537;44.384;0.512;2023-07-02T09:52:19;2.25;;;1.00;;
77788;SDS011;70537;44.384;0.512;2023-07-02T09:54:46;3.15;;;1.00;;
77788;SDS011;70537;44.384;0.512;2023-07-02T09:57:12;4.28;;;0.75;;
77788;SDS011;70537;44.384;0.512;2023-07-02T09:59:38;1.73;;;0.98;;
77788;SDS011;70537;44.384;0.512;2023-07-02T10:02:08;1.27;;;0.98;;
77788;SDS011;70537;44.384;0.512;2023-07-02T10:07:25;3.08;;;0.90;;
77788;SDS011;70537;44.384;0.512;2023-07-02T10:09:51;1.88;;;1.08;;
77788;SDS011;70537;44.384;0.512;2023-07-02T10:12:17;0.80;;;0.77;;
77788;SDS011;70537;44.384;0.512;2023-07-02T10:14:48;2.22;;;1.13;;
77788;SDS011;70537;44.384;0.512;2023-07-02T10:17:31;2.70;;;1.05;;
77788;SDS011;70537;44.384;0.512;2023-07-02T10:20:03;1.48;;;0.85;;
77788;SDS011;70537;44.384;0.512;2023-07-02T10:22:49;2.55;;;1.08;;
77788;SDS011;70537;44.384;0.512;2023-07-02T10:25:29;1.13;;;0.88;;
77788;SDS011;70537;44.384;0.512;2023-07-02T10:28:00;0.80;;;0.80;;
77788;SDS011;70537;44.384;0.512;2023-07-02T10:30:36;1.38;;;1.02;;
77788;SDS011;70537;44.384;0.512;2023-07-02T10:33:06;1.52;;;1.15;;
77788;SDS011;70537;44.384;0.512;2023-07-02T10:35:36;2.78;;;1.42;;
77788;SDS011;70537;44.384;0.512;2023-07-02T10:38:02;2.97;;;1.42;;
77788;SDS011;70537;44.384;0.512;2023-07-02T10:40:27;1.40;;;1.25;;
77788;SDS011;70537;44.384;0.512;2023-07-02T10:42:54;1.98;;;1.83;;
77788;SDS011;70537;44.384;0.512;2023-07-02T10:45:20;2.70;;;1.45;;
77788;SDS011;70537;44.384;0.512;2023-07-02T10:47:46;2.00;;;1.17;;
77788;SDS011;70537;44.384;0.512;2023-07-02T10:50:18;4.38;;;1.40;;
77788;SDS011;70537;44.384;0.512;2023-07-02T10:52:45;2.20;;;1.05;;
77788;SDS011;70537;44.384;0.512;2023-07-02T10:55:22;2.05;;;1.33;;
77788;SDS011;70537;44.384;0.512;2023-07-02T10:57:49;3.42;;;1.33;;
77788;SDS011;70537;44.384;0.512;2023-07-02T11:00:18;1.45;;;1.30;;
77788;SDS011;70537;44.384;0.512;2023-07-02T11:02:44;2.00;;;1.33;;
77788;SDS011;70537;44.384;0.512;2023-07-02T11:05:10;1.13;;;0.88;;
77788;SDS011;70537;44.384;0.512;2023-07-02T11:07:40;1.88;;;1.40;;
77788;SDS011;70537;44.384;0.512;2023-07-02T11:10:06;1.73;;;1.58;;
77788;SDS011;70537;44.384;0.512;2023-07-02T11:12:33;3.45;;;1.80;;
77788;SDS011;70537;44.384;0.512;2023-07-02T11:15:09;2.80;;;1.42;;
77788;SDS011;70537;44.384;0.512;2023-07-02T11:17:36;2.22;;;1.50;;
77788;SDS011;70537;44.384;0.512;2023-07-02T11:20:02;2.70;;;1.50;;
77788;SDS011;70537;44.384;0.512;2023-07-02T11:22:31;3.33;;;1.60;;
77788;SDS011;70537;44.384;0.512;2023-07-02T11:27:33;2.17;;;1.23;;
77788;SDS011;70537;44.384;0.512;2023-07-02T11:29:58;1.45;;;1.20;;
77788;SDS011;70537;44.384;0.512;2023-07-02T11:32:24;1.80;;;1.67;;
77788;SDS011;70537;44.384;0.512;2023-07-02T11:34:53;3.72;;;1.27;;
77788;SDS011;70537;44.384;0.512;2023-07-02T11:37:20;3.20;;;1.23;;
77788;SDS011;70537;44.384;0.512;2023-07-02T11:39:45;2.10;;;1.50;;
77788;SDS011;70537;44.384;0.512;2023-07-02T11:42:11;2.70;;;1.70;;
77788;SDS011;70537;44.384;0.512;2023-07-02T11:44:36;2.85;;;2.25;;
77788;SDS011;70537;44.384;0.512;2023-07-02T11:47:02;3.83;;;1.77;;
77788;SDS011;70537;44.384;0.512;2023-07-02T11:49:28;2.38;;;1.55;;
77788;SDS011;70537;44.384;0.512;2023-07-02T11:51:54;1.88;;;1.23;;
77788;SDS011;70537;44.384;0.512;2023-07-02T11:54:19;3.15;;;1.77;;
77788;SDS011;70537;44.384;0.512;2023-07-02T11:56:45;1.73;;;1.63;;
77788;SDS011;70537;44.384;0.512;2023-07-02T12:01:38;27.33;;;16.70;;
77788;SDS011;70537;44.384;0.512;2023-07-02T12:04:03;4.40;;;1.20;;
77788;SDS011;70537;44.384;0.512;2023-07-02T12:06:30;1.33;;;0.95;;
77788;SDS011;70537;44.384;0.512;2023-07-02T12:08:56;1.38;;;1.02;;
77788;SDS011;70537;44.384;0.512;2023-07-02T12:11:21;2.60;;;1.58;;
77788;SDS011;70537;44.384;0.512;2023-07-02T12:13:47;2.58;;;1.77;;
77788;SDS011;70537;44.384;0.512;2023-07-02T12:16:12;2.00;;;0.98;;
77788;SDS011;70537;44.384;0.512;2023-07-02T12:18:38;1.33;;;1.23;;
77788;SDS011;70537;44.384;0.512;2023-07-02T12:21:04;1.23;;;1.10;;
77788;SDS011;70537;44.384;0.512;2023-07-02T12:23:29;1.63;;;1.02;;
77788;SDS011;70537;44.384;0.512;2023-07-02T12:25:55;3.58;;;1.33;;
77788;SDS011;70537;44.384;0.512;2023-07-02T12:28:21;2.13;;;1.17;;
77788;SDS011;70537;44.384;0.512;2023-07-02T12:30:46;1.90;;;1.70;;
77788;SDS011;70537;44.384;0.512;2023-07-02T12:33:12;3.00;;;1.80;;
77788;SDS011;70537;44.384;0.512;2023-07-02T12:35:38;2.55;;;2.15;;
77788;SDS011;70537;44.384;0.512;2023-07-02T12:38:03;3.70;;;1.80;;
77788;SDS011;70537;44.384;0.512;2023-07-02T12:40:29;2.65;;;1.52;;
77788;SDS011;70537;44.384;0.512;2023-07-02T12:42:54;2.35;;;1.60;;
77788;SDS011;70537;44.384;0.512;2023-07-02T12:45:21;2.80;;;1.25;;
77788;SDS011;70537;44.384;0.512;2023-07-02T12:47:47;3.25;;;1.65;;
77788;SDS011;70537;44.384;0.512;2023-07-02T12:50:12;1.35;;;1.25;;
77788;SDS011;70537;44.384;0.512;2023-07-02T12:52:38;1.95;;;1.73;;
77788;SDS011;70537;44.384;0.512;2023-07-02T12:55:03;2.08;;;1.70;;
77788;SDS011;70537;44.384;0.512;2023-07-02T12:57:29;1.92;;;1.48;;
77788;SDS011;70537;44.384;0.512;2023-07-02T12:59:55;2.08;;;1.20;;
77788;SDS011;70537;44.384;0.512;2023-07-02T13:02:22;1.83;;;1.30;;
77788;SDS011;70537;44.384;0.512;2023-07-02T13:04:49;3.88;;;1.60;;
77788;SDS011;70537;44.384;0.512;2023-07-02T13:07:15;3.08;;;2.13;;
77788;SDS011;70537;44.384;0.512;2023-07-02T13:09:41;2.80;;;1.75;;
77788;SDS011;70537;44.384;0.512;2023-07-02T13:12:07;2.10;;;1.63;;
77788;SDS011;70537;44.384;0.512;2023-07-02T13:14:33;2.80;;;1.60;;
77788;SDS011;70537;44.384;0.512;2023-07-02T13:17:00;3.47;;;2.10;;
77788;SDS011;70537;44.384;0.512;2023-07-02T13:19:26;3.50;;;2.00;;
77788;SDS011;70537;44.384;0.512;2023-07-02T13:21:51;2.65;;;2.30;;
77788;SDS011;70537;44.384;0.512;2023-07-02T13:24:17;2.53;;;2.05;;
77788;SDS011;70537;44.384;0.512;2023-07-02T13:26:42;2.58;;;2.17;;
77788;SDS011;70537;44.384;0.512;2023-07-02T13:29:08;3.10;;;1.90;;
77788;SDS011;70537;44.384;0.512;2023-07-02T13:31:33;4.70;;;2.60;;
77788;SDS011;70537;44.384;0.512;2023-07-02T13:33:59;3.15;;;2.50;;
77788;SDS011;70537;44.384;0.512;2023-07-02T13:36:24;4.07;;;2.22;;
77788;SDS011;70537;44.384;0.512;2023-07-02T13:38:50;5.80;;;3.05;;
77788;SDS011;70537;44.384;0.512;2023-07-02T13:41:15;5.70;;;3.05;;
77788;SDS011;70537;44.384;0.512;2023-07-02T13:43:41;4.90;;;2.50;;
77788;SDS011;70537;44.384;0.512;2023-07-02T13:46:06;3.58;;;2.70;;
77788;SDS011;70537;44.384;0.512;2023-07-02T13:48:32;6.15;;;3.05;;
77788;SDS011;70537;44.384;0.512;2023-07-02T13:50:57;3.70;;;2.33;;
77788;SDS011;70537;44.384;0.512;2023-07-02T13:53:23;4.88;;;2.95;;
77788;SDS011;70537;44.384;0.512;2023-07-02T13:55:49;4.78;;;2.65;;
77788;SDS011;70537;44.384;0.512;2023-07-02T13:58:14;4.32;;;3.00;;
77788;SDS011;70537;44.384;0.512;2023-07-02T14:00:40;4.80;;;2.60;;
77788;SDS011;70537;44.384;0.512;2023-07-02T14:03:05;3.25;;;2.55;;
77788;SDS011;70537;44.384;0.512;2023-07-02T14:05:31;3.28;;;2.90;;
77788;SDS011;70537;44.384;0.512;2023-07-02T14:07:57;4.57;;;2.90;;
77788;SDS011;70537;44.384;0.512;2023-07-02T14:10:23;4.20;;;2.88;;
77788;SDS011;70537;44.384;0.512;2023-07-02T14:12:48;3.38;;;2.85;;
77788;SDS011;70537;44.384;0.512;2023-07-02T14:15:14;3.28;;;2.65;;
77788;SDS011;70537;44.384;0.512;2023-07-02T14:17:40;4.55;;;2.53;;
77788;SDS011;70537;44.384;0.512;2023-07-02T14:20:07;3.78;;;2.40;;
77788;SDS011;70537;44.384;0.512;2023-07-02T14:22:33;3.38;;;2.70;;
77788;SDS011;70537;44.384;0.512;2023-07-02T14:24:59;2.95;;;2.33;;
77788;SDS011;70537;44.384;0.512;2023-07-02T14:27:24;4.63;;;3.10;;
77788;SDS011;70537;44.384;0.512;2023-07-02T14:29:50;3.08;;;2.47;;
77788;SDS011;70537;44.384;0.512;2023-07-02T14:32:15;3.53;;;2.70;;
77788;SDS011;70537;44.384;0.512;2023-07-02T14:34:41;5.22;;;2.90;;
77788;SDS011;70537;44.384;0.512;2023-07-02T14:37:07;2.92;;;2.63;;
77788;SDS011;70537;44.384;0.512;2023-07-02T14:39:33;6.15;;;2.67;;
77788;SDS011;70537;44.384;0.512;2023-07-02T14:41:59;4.70;;;2.88;;
77788;SDS011;70537;44.384;0.512;2023-07-02T14:44:24;3.03;;;2.45;;
77788;SDS011;70537;44.384;0.512;2023-07-02T14:46:50;5.65;;;3.03;;
77788;SDS011;70537;44.384;0.512;2023-07-02T14:49:16;5.93;;;3.45;;
77788;SDS011;70537;44.384;0.512;2023-07-02T14:51:41;8.32;;;3.05;;
77788;SDS011;70537;44.384;0.512;2023-07-02T14:54:07;11.73;;;7.15;;
77788;SDS011;70537;44.384;0.512;2023-07-02T14:56:33;9.02;;;3.67;;
77788;SDS011;70537;44.384;0.512;2023-07-02T14:59:01;4.95;;;3.45;;